Vandenberg AFB, California
Current Conditions -  °F | °C
As of 3:55 PM on Sunday 25 Jan 2015 (Local Time) from KVBG Reporting Station
Clear Clear  
Wind Chill: 73°   Ceiling: Unl
Heat Index: 73°   Visibility: 10mi
Dew Point: 26°   Wind: 5mph
Humidity: 17%   Direction: 280°W
Pressure: 29.98"   Gusts: NA
Location:  34.7134°N, 120.557°W
Report Text: KVBG 252355Z AUTO 28004KT 10SM CLR 23/M03 A2998 RMK AO2 SLP144 T02281033 10250 20206 56010 TSNO $
Loading
Personal Weather Stations






























Interactive Weather Map New forecast layout! Learn more

10-Day Weather Forecast

Advertisements
Track Severe Weather on mobile